createdAt,value
2023-01-11T00:09:09.161Z,100.00
2023-01-11T00:24:11.115Z,100.00
2023-01-11T00:39:13.712Z,100.00
2023-01-11T00:54:16.098Z,100.00
2023-01-11T01:10:28.719Z,100.00
2023-01-11T04:38:14.023Z,100.00
2023-01-11T04:53:15.986Z,100.00
2023-01-11T05:08:17.979Z,100.00
2023-01-11T05:23:22.745Z,100.00
2023-01-11T05:38:25.230Z,100.00
2023-01-11T05:53:27.106Z,100.00
2023-01-11T06:08:28.968Z,100.00
2023-01-11T06:23:33.352Z,100.00
2023-01-11T06:38:38.012Z,100.00
2023-01-11T06:53:44.553Z,97.26
2023-01-11T07:08:47.196Z,94.72
2023-01-11T07:23:49.208Z,78.54
2023-01-11T07:38:51.915Z,75.48
2023-01-11T07:53:53.979Z,73.59
2023-01-11T08:08:56.578Z,72.82
2023-01-11T08:24:00.122Z,66.59
2023-01-11T08:39:02.521Z,62.83
2023-01-11T08:54:04.676Z,59.34
2023-01-11T14:35:18.484Z,100.00
2023-01-11T14:50:29.307Z,100.00
2023-01-11T15:05:31.499Z,100.00
2023-01-11T15:20:47.928Z,100.00
2023-01-11T15:35:56.220Z,100.00
2023-01-11T15:51:28.708Z,100.00
2023-01-11T16:07:04.996Z,100.00
2023-01-11T16:22:11.692Z,100.00
2023-01-11T16:37:44.668Z,100.00
2023-01-11T16:52:48.204Z,100.00
2023-01-11T17:07:50.231Z,100.00
2023-01-11T17:22:53.980Z,100.00
2023-01-11T17:37:59.461Z,100.00
2023-01-11T17:53:22.538Z,100.00
2023-01-11T18:08:24.414Z,100.00
2023-01-11T18:23:27.332Z,100.00
2023-01-11T18:38:34.813Z,100.00
2023-01-11T18:53:36.724Z,100.00
2023-01-11T19:08:38.585Z,100.00
2023-01-11T22:32:10.651Z,100.00
2023-01-11T22:47:12.527Z,100.00
2023-01-11T23:02:14.423Z,100.00
2023-01-11T23:17:18.910Z,100.00
2023-01-11T23:32:21.170Z,100.00
2023-01-11T23:47:25.450Z,100.00
